createdAt,value
2023-03-06T00:00:11.357Z,96198.84
2023-03-06T00:02:37.961Z,96201.81
2023-03-06T00:05:04.482Z,96187.00
2023-03-06T00:07:31.221Z,96206.09
2023-03-06T00:09:57.612Z,96245.53
2023-03-06T00:12:24.080Z,96217.72
2023-03-06T00:14:50.574Z,96202.47
2023-03-06T00:17:16.984Z,96203.09
2023-03-06T00:19:43.525Z,96206.06
2023-03-06T00:22:11.979Z,96192.00
2023-03-06T00:24:38.392Z,96201.81
2023-03-06T00:27:04.849Z,96187.00
2023-03-06T00:29:31.424Z,96214.34
2023-03-06T00:31:57.833Z,96190.47
2023-03-06T00:34:24.346Z,96205.06
2023-03-06T00:36:50.843Z,96177.94
2023-03-06T00:39:17.323Z,96155.47
2023-03-06T00:41:46.622Z,96167.38
2023-03-06T00:44:13.342Z,96175.94
2023-03-06T00:46:39.760Z,96188.78
2023-03-06T00:49:06.371Z,96177.66
2023-03-06T00:51:32.845Z,96166.44
2023-03-06T00:53:59.362Z,96150.31
2023-03-06T00:56:25.874Z,96160.97
2023-03-06T00:58:52.248Z,96155.66
2023-03-06T01:01:18.889Z,96168.13
2023-03-06T01:03:45.516Z,96155.34
2023-03-06T01:06:12.017Z,96137.34
2023-03-06T01:08:38.553Z,96160.91
2023-03-06T01:11:05.178Z,96159.56
2023-03-06T01:13:31.668Z,96143.38
2023-03-06T01:16:11.078Z,96131.22
2023-03-06T01:18:37.611Z,96124.81
2023-03-06T01:21:04.156Z,96118.47
2023-03-06T01:23:30.642Z,96133.88
2023-03-06T01:25:57.112Z,96110.59
2023-03-06T01:28:23.756Z,96105.75
2023-03-06T01:30:50.155Z,96100.34
2023-03-06T01:33:16.640Z,96107.59
2023-03-06T01:35:43.075Z,96117.16
2023-03-06T01:38:09.608Z,96083.78
2023-03-06T01:40:36.431Z,96100.75
2023-03-06T01:43:32.343Z,96113.72
2023-03-06T01:46:17.474Z,96090.81
2023-03-06T01:48:44.305Z,96099.34
2023-03-06T01:51:10.863Z,96097.75
2023-03-06T01:53:37.298Z,96091.66
2023-03-06T01:56:03.819Z,96085.03
2023-03-06T01:58:30.278Z,96102.09
2023-03-06T02:00:56.712Z,96087.75
2023-03-06T02:03:23.639Z,96061.72
2023-03-06T02:05:50.097Z,96067.63
2023-03-06T02:08:17.594Z,96076.16
2023-03-06T02:10:50.288Z,96074.59
2023-03-06T02:13:16.789Z,96064.22
2023-03-06T02:15:43.271Z,96078.16
2023-03-06T02:18:09.690Z,96080.31
2023-03-06T02:21:05.505Z,96048.50
2023-03-06T02:23:45.786Z,96037.06
2023-03-06T02:26:12.210Z,96036.03
2023-03-06T02:28:38.717Z,96044.84
2023-03-06T02:31:05.480Z,96037.16
2023-03-06T02:33:32.138Z,96025.69
2023-03-06T02:35:59.550Z,96051.16
2023-03-06T02:38:27.772Z,96022.22
2023-03-06T02:40:54.160Z,96011.06
2023-03-06T02:43:32.353Z,96028.84
2023-03-06T02:45:58.864Z,96034.47
2023-03-06T02:48:25.326Z,96029.19
2023-03-06T02:50:51.704Z,96033.50
2023-03-06T02:53:18.468Z,96025.56
2023-03-06T02:55:44.930Z,95992.09
2023-03-06T02:58:11.516Z,95989.75
2023-03-06T03:00:39.046Z,96015.44
2023-03-06T03:03:06.543Z,95991.09
2023-03-06T03:05:32.951Z,96018.47
2023-03-06T03:07:59.375Z,96012.53
2023-03-06T03:10:25.819Z,95993.56
2023-03-06T03:12:52.286Z,95980.19
2023-03-06T03:15:18.725Z,96001.94
2023-03-06T03:17:45.164Z,96015.81
2023-03-06T03:20:12.592Z,95996.88
2023-03-06T03:22:39.118Z,95993.94
2023-03-06T03:25:05.877Z,96002.44
2023-03-06T03:27:32.412Z,95991.34
2023-03-06T03:29:59.032Z,95988.69
2023-03-06T03:32:25.648Z,95993.75
2023-03-06T03:34:52.345Z,95983.91
2023-03-06T03:37:18.855Z,95978.53
2023-03-06T03:39:45.297Z,95975.66
2023-03-06T03:42:11.684Z,95990.78
2023-03-06T03:44:38.060Z,95978.59
2023-03-06T03:47:04.730Z,95992.34
2023-03-06T03:49:31.137Z,95975.44
2023-03-06T03:51:57.552Z,95990.75
2023-03-06T03:54:23.943Z,95987.03
2023-03-06T03:56:50.358Z,95982.63
2023-03-06T03:59:16.794Z,95961.72
2023-03-06T04:01:43.228Z,95957.19
2023-03-06T04:04:09.772Z,95942.34
2023-03-06T04:06:36.360Z,95968.94
2023-03-06T04:09:02.930Z,95952.00
2023-03-06T04:11:29.318Z,95958.59
2023-03-06T04:13:55.702Z,95925.41
2023-03-06T04:16:22.217Z,95956.13
2023-03-06T04:18:48.768Z,95941.34
2023-03-06T04:21:15.157Z,95951.34
2023-03-06T04:23:41.627Z,95960.22
2023-03-06T04:26:08.068Z,95970.69
2023-03-06T04:28:35.352Z,95961.38
2023-03-06T04:31:01.909Z,95955.03
2023-03-06T04:33:28.467Z,95931.94
2023-03-06T04:35:54.958Z,95969.91
2023-03-06T04:38:21.347Z,95936.75
2023-03-06T04:40:47.802Z,95943.13
2023-03-06T04:43:14.454Z,95946.19
2023-03-06T04:45:41.099Z,95943.34
2023-03-06T04:48:07.607Z,95929.59
2023-03-06T04:50:34.078Z,95937.50
2023-03-06T04:53:00.740Z,95914.97
2023-03-06T04:55:27.394Z,95919.41
2023-03-06T04:57:53.785Z,95920.25
2023-03-06T05:00:21.111Z,95923.34
2023-03-06T05:02:47.579Z,95935.75
2023-03-06T05:05:14.181Z,95911.66
2023-03-06T05:07:40.983Z,95913.25
2023-03-06T05:10:07.907Z,95926.53
2023-03-06T05:12:37.142Z,95935.78
2023-03-06T05:15:04.125Z,95923.34
2023-03-06T05:17:30.661Z,95927.84
2023-03-06T05:19:57.077Z,95902.97
2023-03-06T05:22:23.489Z,95903.16
2023-03-06T05:24:50.048Z,95914.00
2023-03-06T05:27:17.233Z,95922.53
2023-03-06T05:29:43.775Z,95915.91
2023-03-06T05:32:10.402Z,95921.44
2023-03-06T05:34:36.967Z,95919.84
2023-03-06T05:37:03.551Z,95912.50
2023-03-06T05:39:29.998Z,95905.56
2023-03-06T05:41:56.359Z,95906.34
2023-03-06T05:44:22.777Z,95904.75
2023-03-06T05:46:49.879Z,95924.38
2023-03-06T05:49:16.542Z,95915.53
2023-03-06T05:51:42.893Z,95907.91
2023-03-06T05:54:10.199Z,95903.66
2023-03-06T05:56:36.886Z,95908.69
2023-03-06T05:59:03.288Z,95910.31
2023-03-06T06:01:29.807Z,95893.00
2023-03-06T06:03:56.316Z,95900.44
2023-03-06T06:06:22.770Z,95931.44
2023-03-06T06:08:49.221Z,95908.38
2023-03-06T06:11:15.693Z,95900.72
2023-03-06T06:13:42.147Z,95926.53
2023-03-06T06:16:12.202Z,95902.97
2023-03-06T06:18:41.135Z,95890.72
2023-03-06T06:21:08.508Z,95922.03
2023-03-06T06:23:35.017Z,95893.47
2023-03-06T06:26:01.856Z,95900.84
2023-03-06T06:28:28.581Z,95903.69
2023-03-06T06:30:55.143Z,95919.97
2023-03-06T06:33:21.550Z,95907.84
2023-03-06T06:35:48.183Z,95907.66
2023-03-06T06:38:14.626Z,95887.72
2023-03-06T06:40:41.064Z,95918.75
2023-03-06T06:43:07.414Z,95899.47
2023-03-06T06:45:33.835Z,95926.19
2023-03-06T06:48:00.282Z,95921.69
2023-03-06T06:50:27.118Z,95896.84
2023-03-06T06:52:53.601Z,95896.84
2023-03-06T06:55:20.192Z,95893.09
2023-03-06T06:57:47.069Z,95903.00
2023-03-06T07:00:14.111Z,95898.00
2023-03-06T07:02:40.527Z,95901.25
2023-03-06T07:05:09.072Z,95907.63
2023-03-06T07:07:36.126Z,95918.22
2023-03-06T07:10:03.856Z,95926.50
2023-03-06T07:12:30.251Z,95923.63
2023-03-06T07:14:56.653Z,95922.28
2023-03-06T07:17:23.068Z,95901.31
2023-03-06T07:19:49.669Z,95902.50
2023-03-06T07:22:17.040Z,95929.59
2023-03-06T07:24:43.434Z,95939.13
2023-03-06T07:27:11.025Z,95907.31
2023-03-06T07:29:37.391Z,95919.50
2023-03-06T07:32:03.959Z,95916.34
2023-03-06T07:34:30.554Z,95928.63
2023-03-06T07:36:57.108Z,95930.28
2023-03-06T07:39:25.901Z,95917.53
2023-03-06T07:41:54.187Z,95906.19
2023-03-06T07:44:20.634Z,95936.72
2023-03-06T07:46:47.091Z,95916.06
2023-03-06T07:49:13.672Z,95906.28
2023-03-06T07:51:40.267Z,95937.31
2023-03-06T07:54:06.699Z,95917.66
2023-03-06T07:56:33.261Z,95934.19
2023-03-06T07:58:59.765Z,95935.00
2023-03-06T08:01:27.513Z,95934.47
2023-03-06T08:03:53.975Z,95932.13
2023-03-06T08:06:21.508Z,95920.44
2023-03-06T08:08:49.026Z,95927.88
2023-03-06T08:11:15.954Z,95945.22
2023-03-06T08:13:42.439Z,95928.47
2023-03-06T08:16:14.152Z,95938.38
2023-03-06T08:18:40.570Z,95909.19
2023-03-06T08:21:06.914Z,95948.53
2023-03-06T08:23:34.041Z,95918.50
2023-03-06T08:26:01.317Z,95913.72
2023-03-06T08:28:29.837Z,95943.25
2023-03-06T08:30:56.463Z,95949.91
2023-03-06T08:33:22.861Z,95958.19
2023-03-06T08:35:49.457Z,95902.63
2023-03-06T08:38:15.946Z,95936.16
2023-03-06T08:40:43.901Z,95958.50
2023-03-06T08:43:14.068Z,95952.66
2023-03-06T08:45:40.689Z,95934.56
2023-03-06T08:48:07.127Z,95954.25
2023-03-06T08:50:33.870Z,95951.63
2023-03-06T08:53:00.305Z,95967.28
2023-03-06T08:55:27.212Z,95964.91
2023-03-06T08:57:53.926Z,95941.22
2023-03-06T09:00:20.908Z,95967.56
2023-03-06T09:02:47.376Z,95971.28
2023-03-06T09:05:13.888Z,95963.31
2023-03-06T09:07:40.881Z,95964.34
2023-03-06T09:10:07.433Z,95945.41
2023-03-06T09:12:47.352Z,95939.78
2023-03-06T09:15:15.948Z,95954.03
2023-03-06T09:17:42.472Z,95932.94
2023-03-06T09:20:10.571Z,95956.13
2023-03-06T09:22:37.133Z,95953.44
2023-03-06T09:25:04.159Z,95929.69
2023-03-06T09:27:30.642Z,95957.13
2023-03-06T09:29:57.119Z,95959.56
2023-03-06T09:32:23.951Z,95951.84
2023-03-06T09:34:50.408Z,95954.66
2023-03-06T09:37:18.024Z,95952.16
2023-03-06T09:39:44.498Z,95951.53
2023-03-06T09:42:13.260Z,95944.53
2023-03-06T09:44:40.800Z,95929.09
2023-03-06T09:47:07.177Z,95966.88
2023-03-06T09:49:37.131Z,95915.88
2023-03-06T09:52:15.914Z,95959.78
2023-03-06T09:54:46.295Z,95957.47
2023-03-06T09:57:16.723Z,95949.06
2023-03-06T09:59:43.692Z,95939.94
2023-03-06T10:02:19.808Z,95958.97
2023-03-06T10:04:47.584Z,95945.25
2023-03-06T10:07:15.784Z,95938.59
2023-03-06T10:09:45.734Z,95940.78
2023-03-06T10:12:18.114Z,95961.03
2023-03-06T10:14:48.797Z,95938.41
2023-03-06T10:17:19.753Z,95932.00
2023-03-06T10:19:46.121Z,95931.63
2023-03-06T10:22:26.770Z,95928.53
2023-03-06T10:25:13.486Z,95933.19
2023-03-06T10:27:47.832Z,95917.56
2023-03-06T10:30:14.718Z,95928.72
2023-03-06T10:32:51.132Z,95952.91
2023-03-06T10:35:40.494Z,95923.84
2023-03-06T10:38:18.435Z,95926.06
2023-03-06T10:40:48.034Z,95926.50
2023-03-06T10:43:14.551Z,95911.75
2023-03-06T10:45:50.880Z,95914.81
2023-03-06T10:48:18.700Z,95917.28
2023-03-06T10:50:45.204Z,95924.50
2023-03-06T10:53:22.320Z,95905.22
2023-03-06T10:55:53.252Z,95910.78
2023-03-06T10:58:29.657Z,95944.38
2023-03-06T11:01:18.535Z,95932.91
2023-03-06T11:03:46.085Z,95901.63
2023-03-06T11:06:13.488Z,95908.78
2023-03-06T11:08:40.666Z,95926.38
2023-03-06T11:11:15.857Z,95897.50
2023-03-06T11:13:43.820Z,95888.41
2023-03-06T11:16:13.317Z,95904.16
2023-03-06T11:18:40.484Z,95903.31
2023-03-06T11:21:23.219Z,95906.22
2023-03-06T11:23:49.631Z,95903.13
2023-03-06T11:26:15.978Z,95936.19
2023-03-06T11:28:44.001Z,95926.00
2023-03-06T11:31:10.428Z,95914.91
2023-03-06T11:33:46.624Z,95894.97
2023-03-06T11:36:15.037Z,95884.72
2023-03-06T11:38:47.357Z,95883.88
2023-03-06T11:41:15.656Z,95887.63
2023-03-06T11:43:57.617Z,95902.59
2023-03-06T11:46:28.490Z,95896.19
2023-03-06T11:48:58.164Z,95887.50
2023-03-06T11:51:28.747Z,95868.06
2023-03-06T11:53:55.244Z,95854.31
2023-03-06T11:56:41.568Z,95863.78
2023-03-06T11:59:15.578Z,95852.16
2023-03-06T12:01:59.907Z,95865.50
2023-03-06T12:04:46.067Z,95870.91
2023-03-06T12:07:31.514Z,95856.25
2023-03-06T12:10:14.272Z,95855.56
2023-03-06T12:12:56.069Z,95853.44
2023-03-06T12:15:25.204Z,95843.06
2023-03-06T12:17:54.672Z,95862.25
2023-03-06T12:20:31.649Z,95846.34
2023-03-06T12:23:15.272Z,95845.72
2023-03-06T12:25:42.684Z,95826.47
2023-03-06T12:28:24.645Z,95810.50
2023-03-06T12:30:51.094Z,95834.78
2023-03-06T12:33:31.626Z,95838.38
2023-03-06T12:36:16.976Z,95843.44
2023-03-06T12:38:43.505Z,95824.66
2023-03-06T12:41:25.021Z,95813.16
2023-03-06T12:44:10.470Z,95837.53
2023-03-06T12:46:55.909Z,95799.69
2023-03-06T12:49:31.929Z,95827.38
2023-03-06T12:51:58.835Z,95834.72
2023-03-06T12:54:29.333Z,95815.22
2023-03-06T12:56:55.752Z,95795.41
2023-03-06T12:59:38.599Z,95807.34
2023-03-06T13:02:05.095Z,95795.44
2023-03-06T13:04:36.443Z,95815.41
2023-03-06T13:07:06.446Z,95807.25
2023-03-06T13:09:38.827Z,95829.91
2023-03-06T13:12:17.279Z,95804.22
2023-03-06T13:14:53.933Z,95800.53
2023-03-06T13:17:23.784Z,95814.72
2023-03-06T13:20:10.129Z,95807.22
2023-03-06T13:22:36.560Z,95817.59
2023-03-06T13:25:19.567Z,95775.00
2023-03-06T13:27:46.093Z,95854.22
2023-03-06T13:30:21.738Z,95850.78
2023-03-06T13:32:48.537Z,95835.56
2023-03-06T13:35:38.435Z,95831.66
2023-03-06T13:38:04.827Z,95810.94
2023-03-06T13:40:35.307Z,95813.34
2023-03-06T13:43:08.030Z,95833.44
2023-03-06T13:45:37.387Z,95825.22
2023-03-06T13:48:24.943Z,95828.41
2023-03-06T13:50:51.378Z,95816.38
2023-03-06T13:53:40.276Z,95841.66
2023-03-06T13:56:15.393Z,95814.91
2023-03-06T13:58:44.989Z,95842.47
2023-03-06T14:01:14.232Z,95809.97
2023-03-06T14:03:40.668Z,95816.00
2023-03-06T14:06:25.901Z,95840.56
2023-03-06T14:08:52.294Z,95820.78
2023-03-06T14:11:21.556Z,95801.03
2023-03-06T14:13:52.109Z,95817.72
2023-03-06T14:16:20.023Z,95811.94
2023-03-06T14:18:47.314Z,95798.25
2023-03-06T14:21:14.726Z,95803.63
2023-03-06T14:23:42.691Z,95828.06
2023-03-06T14:26:26.937Z,95809.25
2023-03-06T14:28:53.818Z,95797.78
2023-03-06T14:31:21.515Z,95830.00
2023-03-06T14:33:54.187Z,95793.34
2023-03-06T14:36:21.507Z,95803.75
2023-03-06T14:38:55.287Z,95811.88
2023-03-06T14:41:34.410Z,95809.94
2023-03-06T14:44:13.191Z,95823.16
2023-03-06T14:46:39.637Z,95817.25
2023-03-06T14:49:07.292Z,95834.50
2023-03-06T14:51:43.204Z,95839.81
2023-03-06T14:54:13.046Z,95838.84
2023-03-06T14:56:40.124Z,95829.31
2023-03-06T14:59:08.983Z,95809.13
2023-03-06T15:01:40.305Z,95856.03
2023-03-06T15:04:13.246Z,95835.19
2023-03-06T15:06:40.462Z,95815.72
2023-03-06T15:09:08.618Z,95811.41
2023-03-06T15:11:53.925Z,95815.16
2023-03-06T15:14:21.338Z,95817.44
2023-03-06T15:16:47.813Z,95813.41
2023-03-06T15:19:17.210Z,95816.00
2023-03-06T15:21:45.843Z,95814.44
2023-03-06T15:24:32.235Z,95807.03
2023-03-06T15:27:00.415Z,95806.47
2023-03-06T15:29:26.904Z,95828.59
2023-03-06T15:31:54.193Z,95821.41
2023-03-06T15:34:21.455Z,95831.31
2023-03-06T15:36:48.430Z,95823.56
2023-03-06T15:39:30.119Z,95814.72
2023-03-06T15:41:59.313Z,95828.88
2023-03-06T15:44:25.980Z,95818.56
2023-03-06T15:46:59.221Z,95829.44
2023-03-06T15:49:33.096Z,95789.03
2023-03-06T15:51:59.548Z,95812.75
2023-03-06T15:54:25.907Z,95802.94
2023-03-06T15:56:52.386Z,95790.06
2023-03-06T15:59:26.172Z,95813.41
2023-03-06T16:01:52.637Z,95816.78
2023-03-06T16:04:19.082Z,95827.91
2023-03-06T16:06:45.565Z,95806.34
2023-03-06T16:09:12.440Z,95808.00
2023-03-06T16:11:43.956Z,95803.50
2023-03-06T16:14:21.104Z,95810.72
2023-03-06T16:16:47.687Z,95779.06
2023-03-06T16:19:26.098Z,95829.91
2023-03-06T16:21:54.177Z,95820.84
2023-03-06T16:24:20.621Z,95807.00
2023-03-06T16:26:47.536Z,95819.03
2023-03-06T16:29:19.963Z,95825.69
2023-03-06T16:31:46.578Z,95813.47
2023-03-06T16:34:12.985Z,95821.72
2023-03-06T16:36:39.386Z,95820.13
2023-03-06T16:39:05.915Z,95805.25
2023-03-06T16:41:32.493Z,95823.34
2023-03-06T16:43:59.204Z,95808.72
2023-03-06T16:46:25.779Z,95815.63
2023-03-06T16:48:53.044Z,95820.16
2023-03-06T16:51:20.136Z,95801.28
2023-03-06T16:53:47.040Z,95822.03
2023-03-06T16:56:14.474Z,95819.66
2023-03-06T16:58:40.943Z,95834.28
2023-03-06T17:01:07.502Z,95809.03
2023-03-06T17:03:34.698Z,95822.34
2023-03-06T17:06:01.125Z,95822.63
2023-03-06T17:08:27.614Z,95827.41
2023-03-06T17:10:54.132Z,95831.13
2023-03-06T17:13:20.566Z,95813.81
2023-03-06T17:15:50.975Z,95802.41
2023-03-06T17:18:17.531Z,95850.00
2023-03-06T17:20:48.077Z,95841.22
2023-03-06T17:23:14.434Z,95819.16
2023-03-06T17:25:40.974Z,95853.72
2023-03-06T17:28:07.499Z,95852.41
2023-03-06T17:30:33.960Z,95822.34
2023-03-06T17:33:00.395Z,95848.66
2023-03-06T17:35:26.931Z,95843.59
2023-03-06T17:37:53.423Z,95830.34
2023-03-06T17:40:19.982Z,95840.41
2023-03-06T17:42:46.358Z,95870.47
2023-03-06T17:45:12.787Z,95829.53
2023-03-06T17:47:39.394Z,95846.53
2023-03-06T17:50:05.854Z,95873.41
2023-03-06T17:52:32.347Z,95839.38
2023-03-06T17:54:58.752Z,95848.41
2023-03-06T17:57:25.253Z,95878.16
2023-03-06T17:59:51.624Z,95850.53
2023-03-06T18:02:18.018Z,95884.31
2023-03-06T18:04:44.552Z,95856.91
2023-03-06T18:07:10.947Z,95864.34
2023-03-06T18:09:37.486Z,95877.34
2023-03-06T18:12:05.931Z,95876.03
2023-03-06T18:14:32.415Z,95884.25
2023-03-06T18:16:58.988Z,95876.31
2023-03-06T18:19:25.435Z,95877.09
2023-03-06T18:21:51.987Z,95881.88
2023-03-06T18:24:18.392Z,95873.09
2023-03-06T18:26:44.812Z,95857.16
2023-03-06T18:29:11.891Z,95883.50
2023-03-06T18:31:39.015Z,95892.81
2023-03-06T18:34:06.780Z,95893.06
2023-03-06T18:36:33.276Z,95888.00
2023-03-06T18:38:59.860Z,95916.44
2023-03-06T18:41:26.238Z,95882.41
2023-03-06T18:43:52.981Z,95897.31
2023-03-06T18:46:19.362Z,95888.81
2023-03-06T18:48:45.785Z,95880.00
2023-03-06T18:51:12.260Z,95899.16
2023-03-06T18:53:38.756Z,95882.66
2023-03-06T18:56:05.393Z,95895.97
2023-03-06T18:58:31.850Z,95848.91
2023-03-06T19:00:59.432Z,95890.91
2023-03-06T19:03:26.885Z,95907.66
2023-03-06T19:05:53.301Z,95894.09
2023-03-06T19:08:20.022Z,95912.72
2023-03-06T19:10:46.527Z,95904.47
2023-03-06T19:13:13.185Z,95895.69
2023-03-06T19:15:43.156Z,95857.41
2023-03-06T19:18:10.096Z,95915.91
2023-03-06T19:20:36.567Z,95896.78
2023-03-06T19:23:02.952Z,95898.63
2023-03-06T19:25:29.390Z,95889.84
2023-03-06T19:27:56.360Z,95901.56
2023-03-06T19:30:22.853Z,95878.69
2023-03-06T19:32:49.384Z,95893.03
2023-03-06T19:35:15.771Z,95895.16
2023-03-06T19:37:42.282Z,95909.50
2023-03-06T19:40:09.023Z,95902.31
2023-03-06T19:42:35.605Z,95860.88
2023-03-06T19:45:02.004Z,95910.56
2023-03-06T19:47:28.421Z,95890.91
2023-03-06T19:49:55.170Z,95879.22
2023-03-06T19:52:21.588Z,95913.47
2023-03-06T19:54:48.000Z,95890.34
2023-03-06T19:57:14.469Z,95890.91
2023-03-06T19:59:40.964Z,95891.94
2023-03-06T20:02:11.169Z,95910.25
2023-03-06T20:04:37.738Z,95887.69
2023-03-06T20:07:04.163Z,95893.00
2023-03-06T20:09:31.130Z,95903.38
2023-03-06T20:11:57.546Z,95878.63
2023-03-06T20:14:23.951Z,95890.88
2023-03-06T20:16:50.518Z,95894.59
2023-03-06T20:19:16.929Z,95900.72
2023-03-06T20:21:43.301Z,95903.59
2023-03-06T20:24:10.955Z,95900.94
2023-03-06T20:26:37.374Z,95888.72
2023-03-06T20:29:03.875Z,95879.19
2023-03-06T20:31:30.511Z,95895.38
2023-03-06T20:33:57.683Z,95905.78
2023-03-06T20:36:25.038Z,95898.59
2023-03-06T20:38:51.542Z,95890.91
2023-03-06T20:41:18.633Z,95887.69
2023-03-06T20:43:45.050Z,95872.00
2023-03-06T20:46:11.761Z,95884.50
2023-03-06T20:48:38.381Z,95881.84
2023-03-06T20:51:05.973Z,95892.97
2023-03-06T20:53:32.476Z,95908.94
2023-03-06T20:55:58.869Z,95906.25
2023-03-06T20:58:25.628Z,95897.75
2023-03-06T21:00:52.318Z,95887.63
2023-03-06T21:03:18.695Z,95874.88
2023-03-06T21:05:48.214Z,95881.50
2023-03-06T21:08:15.132Z,95896.69
2023-03-06T21:10:41.577Z,95889.22
2023-03-06T21:13:08.011Z,95906.47
2023-03-06T21:15:34.495Z,95882.56
2023-03-06T21:18:00.947Z,95882.56
2023-03-06T21:20:27.348Z,95871.16
2023-03-06T21:22:53.742Z,95879.66
2023-03-06T21:25:20.242Z,95872.97
2023-03-06T21:27:46.772Z,95891.03
2023-03-06T21:30:13.570Z,95876.19
2023-03-06T21:32:40.378Z,95886.25
2023-03-06T21:35:06.813Z,95861.03
2023-03-06T21:37:33.267Z,95866.34
2023-03-06T21:39:59.851Z,95870.06
2023-03-06T21:42:26.311Z,95884.94
2023-03-06T21:44:53.472Z,95905.44
2023-03-06T21:47:19.933Z,95877.78
2023-03-06T21:49:48.014Z,95862.41
2023-03-06T21:52:14.562Z,95869.84
2023-03-06T21:54:40.915Z,95861.84
2023-03-06T21:57:07.443Z,95845.09
2023-03-06T21:59:33.852Z,95875.66
2023-03-06T22:02:00.326Z,95870.34
2023-03-06T22:04:26.782Z,95868.72
2023-03-06T22:06:53.336Z,95855.50
2023-03-06T22:09:19.813Z,95858.41
2023-03-06T22:11:46.327Z,95846.75
2023-03-06T22:14:12.727Z,95857.09
2023-03-06T22:16:39.214Z,95858.41
2023-03-06T22:19:06.235Z,95841.69
2023-03-06T22:21:32.883Z,95862.69
2023-03-06T22:23:59.499Z,95865.06
2023-03-06T22:26:26.484Z,95862.41
2023-03-06T22:28:52.900Z,95848.88
2023-03-06T22:31:20.084Z,95859.72
2023-03-06T22:33:46.549Z,95827.63
2023-03-06T22:36:13.923Z,95828.66
2023-03-06T22:38:41.303Z,95849.63
2023-03-06T22:41:08.095Z,95815.34
2023-03-06T22:43:34.534Z,95837.44
2023-03-06T22:46:11.467Z,95816.44
2023-03-06T22:48:38.158Z,95853.66
2023-03-06T22:51:08.560Z,95844.63
2023-03-06T22:53:34.995Z,95854.16
2023-03-06T22:56:01.717Z,95851.25
2023-03-06T22:58:28.318Z,95820.19
2023-03-06T23:00:54.841Z,95836.66
2023-03-06T23:03:21.235Z,95840.09
2023-03-06T23:05:47.767Z,95815.41
2023-03-06T23:08:14.167Z,95800.25
2023-03-06T23:10:40.649Z,95812.47
2023-03-06T23:13:07.061Z,95817.53
2023-03-06T23:15:34.840Z,95813.25
2023-03-06T23:18:01.370Z,95837.19
2023-03-06T23:20:27.885Z,95824.44
2023-03-06T23:22:54.363Z,95807.94
2023-03-06T23:25:20.998Z,95783.25
2023-03-06T23:27:47.590Z,95828.09
2023-03-06T23:30:14.089Z,95803.16
2023-03-06T23:32:40.603Z,95814.84
2023-03-06T23:35:07.200Z,95796.53
2023-03-06T23:37:33.612Z,95820.94
2023-03-06T23:40:00.006Z,95808.47
2023-03-06T23:42:26.461Z,95809.56
2023-03-06T23:44:53.011Z,95819.66
2023-03-06T23:47:19.506Z,95818.06
2023-03-06T23:49:46.043Z,95796.78
2023-03-06T23:52:12.552Z,95801.31
2023-03-06T23:54:39.047Z,95814.59
2023-03-06T23:57:05.545Z,95817.47
2023-03-06T23:59:32.014Z,95809.50
